Forside
METAR-TAF:

METAR-TAF

Lufthavne :

Ceduna, Australien

Breddekreds: 32-07-50S, længdekreds: 133-42-35E, højde: 23 m

Aktuelle vejr

Denne rapport blev lavet for 1 time og 14 minutter siden, kl. 07:00 UTC
Vind 18 kt fra sydsydvest
Temperatur 19°C
Fugtighed 68%
Tryk 1013 hPa
Sigt 10 km eller mere

METAR: YCDU 220700Z AUTO 20018KT 9999 // NCD 19/13 Q1013

Tid: 18:44 (08:14 UTC)


TAF: fraværende

Vejrobservationer og prognoser fra mere end 4000 lufthavne (METAR og TAF).

De gule og røde prikker repræsenterer de meteorologiske stationer.

Flyt musen over at se navnet på stationen.

Så klik over at se vejr observationer og prognoser.

At skifte det kort: Klik på de grønne knapper med et sort kors for at zoome ind; på den grønne knap med en bindestreg for at zoome ud; eller på de grønne pile for tilstødende kort.


METAR-TAF: